Time;durP1;ratioP1;P1;durP2;ratioP2;P2;SDS_P1;SDS_P2;PMS_P1;PMS_P2;Temp;Humidity;BMP_temperature;BMP_pressure;BME280_temperature;BME280_humidity;BME280_pressure;Samples;Min_cycle;Max_cycle;Signal;HPM_P1;HPM_P2
2022/01/31 00:02:02;;;;;;;27.23;5.90;;;5.50;99.90;;;;;;5033185;28;20494;-51
2022/01/31 00:04:27;;;;;;;30.83;5.90;;;5.50;99.90;;;;;;5032517;28;20029;-51
2022/01/31 00:06:54;;;;;;;21.23;4.82;;;5.50;99.90;;;;;;5033233;28;20486;-51
2022/01/31 00:09:22;;;;;;;22.88;5.38;;;5.50;99.90;;;;;;5033258;28;20078;-51
2022/01/31 00:11:56;;;;;;;21.92;4.80;;;5.40;99.90;;;;;;5033508;28;20021;-51
2022/01/31 00:14:43;;;;;;;27.70;5.30;;;5.50;99.90;;;;;;5033338;28;20025;-51
2022/01/31 00:17:10;;;;;;;23.25;4.82;;;5.50;99.90;;;;;;5034330;28;20102;-51
2022/01/31 00:19:37;;;;;;;27.50;5.78;;;5.60;99.90;;;;;;5033091;28;20049;-51
2022/01/31 00:22:05;;;;;;;12.63;3.15;;;5.60;99.90;;;;;;5034184;28;20378;-51
2022/01/31 00:24:31;;;;;;;21.00;4.93;;;5.70;99.90;;;;;;5034049;28;20038;-51
2022/01/31 00:26:56;;;;;;;24.27;5.13;;;5.70;99.90;;;;;;5033269;28;20037;-52
2022/01/31 00:29:22;;;;;;;22.52;4.43;;;5.70;99.90;;;;;;5033225;28;20045;-51
2022/01/31 00:31:49;;;;;;;29.63;5.30;;;5.80;99.90;;;;;;5031936;28;20030;-51
2022/01/31 00:34:15;;;;;;;17.05;5.55;;;5.80;99.90;;;;;;5033583;28;20094;-51
2022/01/31 00:36:41;;;;;;;23.92;4.88;;;5.90;99.90;;;;;;5033347;28;20226;-51
2022/01/31 00:39:06;;;;;;;16.63;3.10;;;5.90;99.90;;;;;;5033336;28;20446;-51
2022/01/31 00:41:32;;;;;;;14.38;3.28;;;6.00;99.90;;;;;;5031864;28;20025;-51
2022/01/31 00:44:26;;;;;;;20.85;4.30;;;6.00;99.90;;;;;;5033098;28;20044;-51
2022/01/31 00:46:59;;;;;;;21.80;4.35;;;6.10;99.90;;;;;;5032303;28;20068;-51
2022/01/31 00:51:57;;;;;;;30.13;5.18;;;6.10;99.90;;;;;;5033120;28;20021;-51
2022/01/31 00:54:23;;;;;;;12.75;3.22;;;6.20;99.90;;;;;;5033292;28;20033;-51
2022/01/31 00:56:52;;;;;;;22.23;4.32;;;6.10;99.90;;;;;;5033085;28;20588;-51
2022/01/31 00:59:18;;;;;;;26.13;4.60;;;6.20;99.90;;;;;;5032920;28;20029;-51
2022/01/31 01:01:44;;;;;;;14.18;3.58;;;6.20;99.90;;;;;;5032953;28;20032;-51
2022/01/31 01:04:10;;;;;;;20.48;4.40;;;6.20;99.90;;;;;;5032409;28;20250;-52
2022/01/31 01:06:36;;;;;;;24.88;3.83;;;6.20;99.90;;;;;;5031323;28;20034;-51
2022/01/31 01:09:03;;;;;;;19.73;4.20;;;6.10;99.90;;;;;;5031033;28;20025;-51
2022/01/31 01:11:29;;;;;;;15.50;3.25;;;6.00;99.90;;;;;;5032527;28;20021;-51
2022/01/31 01:13:54;;;;;;;21.38;3.90;;;5.90;99.90;;;;;;5032468;28;20382;-51
2022/01/31 01:16:20;;;;;;;14.23;3.28;;;5.80;99.90;;;;;;5032260;28;20041;-53
2022/01/31 01:18:46;;;;;;;22.05;4.90;;;5.80;99.90;;;;;;5030598;28;20406;-54
2022/01/31 01:21:11;;;;;;;24.30;4.47;;;5.70;99.90;;;;;;5032270;28;20065;-54
2022/01/31 01:23:37;;;;;;;14.55;3.97;;;5.70;99.90;;;;;;5032758;28;20112;-53
2022/01/31 01:26:03;;;;;;;22.50;5.60;;;5.70;99.90;;;;;;5031881;28;20018;-53
2022/01/31 01:28:29;;;;;;;24.63;4.93;;;5.60;99.90;;;;;;5031861;28;20048;-53
2022/01/31 01:30:56;;;;;;;11.15;2.40;;;5.60;99.90;;;;;;5031935;28;20675;-54
2022/01/31 01:33:23;;;;;;;25.60;5.47;;;5.60;99.90;;;;;;5032370;28;20021;-53
2022/01/31 01:35:51;;;;;;;34.15;4.82;;;5.60;99.90;;;;;;5031809;28;20033;-56
2022/01/31 01:38:18;;;;;;;19.60;3.65;;;5.60;99.90;;;;;;5032087;28;20039;-56
2022/01/31 01:40:46;;;;;;;24.25;6.25;;;5.50;99.90;;;;;;5031658;28;20037;-55
2022/01/31 01:43:13;;;;;;;26.92;5.38;;;5.60;99.90;;;;;;5031625;28;20168;-55
2022/01/31 01:45:40;;;;;;;18.27;5.57;;;5.50;99.90;;;;;;5031581;28;20121;-54
2022/01/31 01:48:07;;;;;;;23.85;5.05;;;5.50;99.90;;;;;;5031552;28;20022;-53
2022/01/31 01:50:35;;;;;;;23.92;5.63;;;5.50;99.90;;;;;;5031302;28;20029;-54
2022/01/31 01:53:01;;;;;;;23.38;5.38;;;5.60;99.90;;;;;;5031665;28;20425;-55
2022/01/31 01:55:27;;;;;;;21.60;5.72;;;5.60;99.90;;;;;;5031313;28;20030;-55
2022/01/31 01:57:53;;;;;;;11.93;4.35;;;5.60;99.90;;;;;;5031656;28;20033;-56
2022/01/31 02:00:25;;;;;;;21.30;6.25;;;5.60;99.90;;;;;;5031714;28;20026;-56
2022/01/31 02:02:51;;;;;;;15.03;3.73;;;5.60;99.90;;;;;;5031449;28;20041;-56
2022/01/31 02:05:17;;;;;;;19.05;5.20;;;5.60;99.90;;;;;;5030073;28;20021;-55
2022/01/31 02:07:43;;;;;;;18.92;5.38;;;5.70;99.90;;;;;;5031453;28;20026;-56
2022/01/31 02:10:10;;;;;;;18.95;4.90;;;5.70;99.90;;;;;;5031486;28;20017;-55
2022/01/31 02:12:45;;;;;;;14.73;4.90;;;5.80;99.90;;;;;;5031452;28;20029;-55
2022/01/31 02:15:12;;;;;;;14.45;4.43;;;5.80;99.90;;;;;;5031448;28;20025;-55
2022/01/31 02:17:39;;;;;;;18.33;6.03;;;5.80;99.90;;;;;;5031569;28;20034;-55
2022/01/31 02:20:07;;;;;;;16.17;5.25;;;5.90;99.90;;;;;;5029796;28;20066;-55
2022/01/31 02:22:34;;;;;;;13.30;4.45;;;5.90;99.90;;;;;;5030504;28;20043;-55
2022/01/31 02:25:00;;;;;;;14.10;3.97;;;5.90;99.90;;;;;;5030214;28;20190;-55
2022/01/31 02:27:31;;;;;;;11.00;3.53;;;6.00;99.90;;;;;;5031138;28;20101;-56
2022/01/31 02:29:57;;;;;;;10.88;3.30;;;6.00;99.90;;;;;;5031208;28;20033;-55
2022/01/31 02:32:23;;;;;;;11.55;3.20;;;6.10;99.90;;;;;;5031748;28;20356;-56
2022/01/31 02:34:50;;;;;;;8.68;3.80;;;6.10;99.90;;;;;;5031164;28;20022;-57
2022/01/31 02:37:17;;;;;;;11.70;3.47;;;6.10;99.90;;;;;;5031244;28;20025;-56
2022/01/31 02:39:43;;;;;;;10.10;2.90;;;6.20;99.90;;;;;;5031575;28;20064;-53
2022/01/31 02:42:09;;;;;;;12.23;2.97;;;6.20;99.90;;;;;;5031378;28;20045;-56
2022/01/31 02:44:38;;;;;;;8.25;3.03;;;6.20;99.90;;;;;;5031390;28;20017;-53
2022/01/31 02:47:09;;;;;;;5.93;2.63;;;6.30;99.90;;;;;;5029566;28;20514;-53
2022/01/31 02:49:44;;;;;;;5.93;3.08;;;6.40;99.90;;;;;;5031200;28;20020;-54
2022/01/31 02:52:13;;;;;;;8.50;3.20;;;6.50;99.90;;;;;;5030622;28;20034;-53
2022/01/31 02:54:38;;;;;;;11.15;4.40;;;6.40;99.90;;;;;;5031536;28;20112;-53
2022/01/31 02:57:04;;;;;;;12.15;4.85;;;6.40;99.90;;;;;;5030174;28;20061;-53
2022/01/31 02:59:31;;;;;;;14.25;5.50;;;6.40;99.90;;;;;;5031378;28;20369;-53
2022/01/31 03:01:57;;;;;;;20.05;6.55;;;6.40;99.90;;;;;;5029639;28;20029;-52
2022/01/31 03:04:23;;;;;;;20.40;5.75;;;6.50;99.90;;;;;;5030928;28;20025;-52
2022/01/31 03:06:49;;;;;;;16.70;5.20;;;6.60;99.90;;;;;;5030786;28;20080;-52
2022/01/31 03:09:15;;;;;;;15.57;4.65;;;6.60;99.90;;;;;;5030944;28;20113;-52
2022/01/31 03:11:41;;;;;;;15.48;4.07;;;6.70;99.90;;;;;;5030440;28;20025;-51
2022/01/31 03:14:07;;;;;;;20.60;4.10;;;6.80;99.90;;;;;;5030793;28;20037;-51
2022/01/31 03:16:34;;;;;;;18.83;3.28;;;6.90;99.90;;;;;;5030032;28;20391;-51
2022/01/31 03:19:00;;;;;;;22.17;3.40;;;6.90;99.90;;;;;;5030234;28;20030;-51
2022/01/31 03:21:26;;;;;;;15.00;3.22;;;6.90;99.90;;;;;;5030292;28;20027;-51
2022/01/31 03:23:51;;;;;;;12.07;2.90;;;7.00;99.90;;;;;;5030169;28;20030;-51
2022/01/31 03:26:18;;;;;;;11.00;2.30;;;7.00;99.90;;;;;;5030139;28;20030;-51
2022/01/31 03:28:44;;;;;;;14.98;3.28;;;7.00;99.90;;;;;;5028846;28;20029;-50
2022/01/31 03:31:10;;;;;;;19.77;2.90;;;6.90;99.90;;;;;;5030487;28;20033;-51
2022/01/31 03:33:36;;;;;;;15.07;2.53;;;6.80;99.90;;;;;;5031730;28;20026;-51
2022/01/31 03:36:02;;;;;;;13.75;2.88;;;6.80;99.90;;;;;;5034868;28;20023;-51
2022/01/31 03:38:28;;;;;;;12.38;3.42;;;6.70;99.90;;;;;;5034246;28;20030;-51
2022/01/31 03:40:53;;;;;;;12.02;2.40;;;6.70;99.90;;;;;;5032632;28;20025;-52
2022/01/31 03:43:19;;;;;;;15.85;2.92;;;6.60;99.90;;;;;;5034069;28;20095;-51
2022/01/31 03:45:45;;;;;;;14.40;2.40;;;6.60;99.90;;;;;;5034314;28;20038;-51
2022/01/31 03:48:11;;;;;;;16.50;2.50;;;6.50;99.90;;;;;;5034182;28;20541;-52
2022/01/31 03:50:36;;;;;;;10.15;1.85;;;6.50;99.90;;;;;;5034223;28;20026;-51
2022/01/31 03:53:02;;;;;;;9.73;1.70;;;6.40;99.90;;;;;;5034189;28;20057;-51
2022/01/31 03:55:28;;;;;;;13.55;2.35;;;6.40;99.90;;;;;;5034182;28;20367;-51
2022/01/31 03:57:54;;;;;;;16.20;2.28;;;6.40;99.90;;;;;;5034060;28;20037;-50
2022/01/31 04:00:22;;;;;;;15.10;3.05;;;6.40;99.90;;;;;;5033804;28;20022;-50
2022/01/31 04:02:48;;;;;;;14.43;2.20;;;6.40;99.90;;;;;;5033465;28;20025;-50
2022/01/31 04:05:13;;;;;;;18.77;2.70;;;6.40;99.90;;;;;;5034171;28;20021;-50
2022/01/31 04:07:40;;;;;;;12.73;2.42;;;6.30;99.90;;;;;;5034038;28;20071;-51
2022/01/31 04:10:06;;;;;;;12.40;2.35;;;6.20;99.90;;;;;;5033350;28;20033;-52
2022/01/31 04:12:32;;;;;;;11.88;1.65;;;6.20;99.90;;;;;;5033048;28;20025;-51
2022/01/31 04:14:57;;;;;;;14.90;2.45;;;6.30;99.90;;;;;;5031825;28;20391;-51
2022/01/31 04:17:25;;;;;;;16.05;2.10;;;6.20;99.90;;;;;;5033571;28;20041;-51
2022/01/31 04:19:51;;;;;;;17.08;2.30;;;6.20;99.90;;;;;;5033780;28;20040;-52
2022/01/31 04:22:19;;;;;;;17.05;2.35;;;6.20;99.90;;;;;;5033336;28;20089;-52
2022/01/31 04:24:48;;;;;;;11.38;1.75;;;6.30;99.90;;;;;;5033676;28;20029;-52
2022/01/31 04:27:18;;;;;;;16.60;2.80;;;6.30;99.90;;;;;;5032914;28;20017;-52
2022/01/31 04:29:46;;;;;;;18.35;2.22;;;6.30;99.90;;;;;;5032561;28;20490;-52
2022/01/31 04:32:11;;;;;;;11.63;1.70;;;6.20;99.90;;;;;;5033071;28;20037;-51
2022/01/31 04:34:37;;;;;;;10.35;2.25;;;6.20;99.90;;;;;;5032902;28;20454;-51
2022/01/31 04:37:03;;;;;;;12.13;2.13;;;6.20;99.90;;;;;;5032924;28;20087;-51
2022/01/31 04:39:31;;;;;;;16.52;2.30;;;6.20;99.90;;;;;;5033765;28;20514;-51
2022/01/31 04:41:57;;;;;;;15.10;2.30;;;6.20;99.90;;;;;;5031815;28;20612;-51
2022/01/31 04:44:23;;;;;;;17.45;2.20;;;6.30;99.90;;;;;;5032845;28;20053;-51
2022/01/31 04:46:51;;;;;;;14.43;2.38;;;6.30;99.90;;;;;;5031642;28;20032;-52
2022/01/31 04:49:17;;;;;;;13.98;2.13;;;6.30;99.90;;;;;;5032329;28;20053;-51
2022/01/31 04:51:43;;;;;;;14.88;2.17;;;6.30;99.90;;;;;;5033342;28;20056;-51
2022/01/31 04:54:17;;;;;;;13.43;2.03;;;6.40;99.90;;;;;;5033580;28;20127;-51
2022/01/31 04:56:44;;;;;;;9.88;1.90;;;6.40;99.90;;;;;;5033155;28;20029;-51
2022/01/31 04:59:10;;;;;;;13.15;2.38;;;6.40;99.90;;;;;;5031697;28;20072;-51
2022/01/31 05:01:38;;;;;;;11.75;2.08;;;6.50;99.90;;;;;;5032990;28;20128;-51
2022/01/31 05:04:05;;;;;;;12.98;2.15;;;6.50;99.90;;;;;;5032974;28;20487;-51
2022/01/31 05:06:35;;;;;;;17.77;2.13;;;6.50;99.90;;;;;;5032781;28;20072;-51
2022/01/31 05:09:01;;;;;;;12.60;2.22;;;6.50;99.90;;;;;;5032475;28;20051;-51
2022/01/31 05:11:27;;;;;;;15.13;2.13;;;6.50;99.90;;;;;;5032072;28;20045;-51
2022/01/31 05:13:52;;;;;;;16.85;2.95;;;6.50;99.90;;;;;;5031996;28;20029;-51
2022/01/31 05:16:18;;;;;;;15.05;2.25;;;6.50;99.90;;;;;;5030530;28;20026;-52
2022/01/31 05:18:44;;;;;;;11.80;2.30;;;6.50;99.90;;;;;;5032032;28;20402;-51
2022/01/31 05:21:10;;;;;;;12.70;2.25;;;6.40;99.90;;;;;;5032422;28;20817;-51
2022/01/31 05:23:36;;;;;;;15.43;2.53;;;6.40;99.90;;;;;;5031840;28;20097;-51
2022/01/31 05:26:02;;;;;;;15.85;2.35;;;6.40;99.90;;;;;;5032065;28;20410;-51
2022/01/31 05:28:28;;;;;;;14.60;2.28;;;6.40;99.90;;;;;;5031468;28;20033;-51
2022/01/31 05:30:53;;;;;;;14.32;2.72;;;6.40;99.90;;;;;;5030452;28;20037;-52
2022/01/31 05:33:19;;;;;;;13.70;2.63;;;6.40;99.90;;;;;;5031708;28;20026;-51
2022/01/31 05:35:45;;;;;;;14.30;2.22;;;6.40;99.90;;;;;;5030925;28;20352;-51
2022/01/31 05:38:12;;;;;;;14.35;2.88;;;6.50;99.90;;;;;;5031802;28;20510;-51
2022/01/31 05:40:38;;;;;;;13.30;1.85;;;6.50;99.90;;;;;;5031512;28;20032;-51
2022/01/31 05:43:04;;;;;;;15.55;2.70;;;6.50;99.90;;;;;;5030191;28;20025;-51
2022/01/31 05:45:29;;;;;;;17.08;2.80;;;6.50;99.90;;;;;;5031301;28;20411;-51
2022/01/31 05:47:55;;;;;;;15.52;2.28;;;6.50;99.90;;;;;;5031582;28;20036;-51
2022/01/31 05:50:21;;;;;;;15.25;3.03;;;6.50;99.90;;;;;;5029755;28;20033;-51
2022/01/31 05:52:47;;;;;;;15.38;2.15;;;6.60;99.90;;;;;;5030202;28;20371;-51
2022/01/31 05:55:14;;;;;;;18.48;2.67;;;6.50;99.90;;;;;;5031118;28;20029;-51
2022/01/31 05:57:42;;;;;;;14.30;2.30;;;6.60;99.90;;;;;;5031681;28;20033;-51
2022/01/31 06:00:08;;;;;;;14.95;3.17;;;6.60;99.90;;;;;;5030708;28;20025;-51
2022/01/31 06:02:35;;;;;;;12.32;2.22;;;6.60;99.90;;;;;;5031813;28;20029;-51
2022/01/31 06:05:02;;;;;;;24.35;3.22;;;6.60;99.90;;;;;;5031791;28;20037;-51
2022/01/31 06:07:28;;;;;;;15.52;2.75;;;6.60;99.90;;;;;;5031203;28;20029;-51
2022/01/31 06:09:53;;;;;;;15.13;3.15;;;6.60;99.90;;;;;;5031315;28;20032;-52
2022/01/31 06:12:19;;;;;;;23.20;3.10;;;6.60;99.90;;;;;;5029785;28;20025;-51
2022/01/31 06:14:45;;;;;;;21.30;2.70;;;6.60;99.90;;;;;;5031024;28;20057;-51
2022/01/31 06:17:10;;;;;;;14.68;2.80;;;6.60;99.90;;;;;;5030643;28;20060;-51
2022/01/31 06:19:36;;;;;;;20.25;3.03;;;6.60;99.90;;;;;;5030685;28;20104;-51
2022/01/31 06:22:02;;;;;;;21.17;3.17;;;6.60;99.90;;;;;;5030907;28;20113;-51
2022/01/31 06:24:28;;;;;;;17.30;3.05;;;6.60;99.90;;;;;;5030818;28;20029;-51
2022/01/31 06:26:54;;;;;;;25.30;3.55;;;6.60;99.90;;;;;;5030817;28;20021;-51
2022/01/31 06:29:19;;;;;;;22.30;3.35;;;6.60;99.90;;;;;;5029799;28;20116;-51
2022/01/31 06:31:45;;;;;;;20.98;3.65;;;6.60;99.90;;;;;;5029745;28;20553;-51
2022/01/31 06:34:11;;;;;;;19.30;2.78;;;6.60;99.90;;;;;;5030176;28;20482;-51
2022/01/31 06:36:36;;;;;;;10.40;2.58;;;6.70;99.90;;;;;;5031114;28;20208;-51
2022/01/31 06:39:02;;;;;;;21.00;3.25;;;6.60;99.90;;;;;;5031782;28;20079;-51
2022/01/31 06:41:28;;;;;;;14.38;2.92;;;6.60;99.90;;;;;;5030809;28;20029;-51
2022/01/31 06:43:54;;;;;;;20.10;2.70;;;6.70;99.90;;;;;;5030704;28;20424;-51
2022/01/31 06:46:20;;;;;;;13.27;2.97;;;6.70;99.90;;;;;;5030864;28;20080;-51
2022/01/31 06:48:46;;;;;;;14.13;2.28;;;6.70;99.90;;;;;;5029055;28;20018;-52
2022/01/31 06:51:12;;;;;;;19.30;3.17;;;6.70;99.90;;;;;;5029444;28;20041;-52
2022/01/31 06:53:38;;;;;;;20.30;3.35;;;6.70;99.90;;;;;;5029184;28;20031;-51
2022/01/31 06:56:04;;;;;;;16.45;2.88;;;6.80;99.90;;;;;;5016426;28;20032;-51
2022/01/31 06:58:30;;;;;;;13.90;2.65;;;6.80;99.90;;;;;;5011519;28;20030;-51
2022/01/31 07:00:56;;;;;;;16.92;2.75;;;6.80;99.90;;;;;;5019508;28;20255;-51
2022/01/31 07:03:22;;;;;;;11.20;2.10;;;6.80;99.90;;;;;;5031104;28;20555;-51
2022/01/31 07:05:48;;;;;;;19.90;3.30;;;6.80;99.90;;;;;;5017047;28;20116;-51
2022/01/31 07:08:14;;;;;;;19.50;2.90;;;6.80;99.90;;;;;;5015276;28;20044;-51
2022/01/31 07:10:41;;;;;;;20.60;2.88;;;6.80;99.90;;;;;;5017305;28;20037;-51
2022/01/31 07:13:13;;;;;;;18.80;2.95;;;6.80;99.90;;;;;;5019458;28;20390;-51
2022/01/31 07:15:40;;;;;;;17.55;2.60;;;6.80;99.90;;;;;;5017632;28;20494;-51
2022/01/31 07:18:05;;;;;;;14.10;2.63;;;6.80;99.90;;;;;;5021446;28;20082;-51
2022/01/31 07:20:40;;;;;;;19.42;3.10;;;6.80;99.90;;;;;;5014585;28;20537;-51
2022/01/31 07:23:23;;;;;;;21.42;2.83;;;6.90;99.90;;;;;;5020078;28;20571;-52
2022/01/31 07:25:48;;;;;;;19.15;2.70;;;6.90;99.90;;;;;;5011980;28;20018;-52
2022/01/31 07:28:16;;;;;;;13.98;2.58;;;6.90;99.90;;;;;;5014771;28;20068;-51
2022/01/31 07:30:49;;;;;;;16.67;3.05;;;6.90;99.90;;;;;;5016971;28;20437;-51
2022/01/31 07:33:15;;;;;;;16.73;2.70;;;7.00;99.90;;;;;;5016037;28;20037;-52
2022/01/31 07:35:42;;;;;;;20.15;2.90;;;6.90;99.90;;;;;;5021183;28;20075;-51
2022/01/31 07:38:08;;;;;;;20.50;3.35;;;6.80;99.90;;;;;;5017207;28;20744;-51
2022/01/31 07:40:33;;;;;;;26.80;2.75;;;6.80;99.90;;;;;;5018237;28;20037;-51
2022/01/31 07:42:59;;;;;;;15.15;3.35;;;6.80;99.90;;;;;;5018292;28;20344;-52
2022/01/31 07:45:25;;;;;;;15.15;3.15;;;6.80;99.90;;;;;;5021731;28;20034;-51
2022/01/31 07:47:51;;;;;;;16.52;2.80;;;6.80;99.90;;;;;;5020360;28;20057;-51
2022/01/31 07:50:17;;;;;;;22.05;3.95;;;6.80;99.90;;;;;;5021026;28;20056;-52
2022/01/31 07:52:43;;;;;;;17.55;3.13;;;6.80;99.90;;;;;;5021770;28;20176;-51
2022/01/31 07:55:10;;;;;;;14.02;2.75;;;6.80;99.90;;;;;;5015922;28;20025;-51
2022/01/31 07:57:37;;;;;;;17.23;2.92;;;6.80;99.90;;;;;;5023558;28;20541;-51
2022/01/31 08:00:05;;;;;;;21.73;3.08;;;6.80;99.90;;;;;;5017314;28;20026;-51
2022/01/31 08:02:30;;;;;;;21.35;2.65;;;6.80;99.90;;;;;;5018115;28;20026;-51
2022/01/31 08:04:56;;;;;;;19.63;3.55;;;6.70;99.90;;;;;;5018633;28;20033;-51
2022/01/31 08:07:22;;;;;;;16.88;2.53;;;6.80;99.90;;;;;;5019529;28;20113;-50
2022/01/31 08:09:48;;;;;;;17.88;2.78;;;6.80;99.90;;;;;;5026796;28;20467;-50
2022/01/31 08:12:14;;;;;;;23.52;2.58;;;6.80;99.90;;;;;;5023858;28;20024;-50
2022/01/31 08:14:40;;;;;;;11.68;2.50;;;6.80;99.90;;;;;;5021471;28;20050;-51
2022/01/31 08:17:06;;;;;;;18.42;2.85;;;6.80;99.90;;;;;;5032058;28;20059;-51
2022/01/31 08:19:33;;;;;;;18.13;2.95;;;6.80;99.90;;;;;;5022795;28;21007;-50
2022/01/31 08:21:59;;;;;;;9.90;2.60;;;6.80;99.90;;;;;;5018948;28;20037;-50
2022/01/31 08:24:25;;;;;;;19.63;2.85;;;6.80;99.90;;;;;;5025380;28;20030;-51
2022/01/31 08:26:51;;;;;;;17.08;3.10;;;6.80;99.90;;;;;;5024140;28;20069;-50
2022/01/31 08:29:22;;;;;;;20.13;3.08;;;6.80;99.90;;;;;;5020504;28;20080;-51
2022/01/31 08:31:52;;;;;;;25.17;3.35;;;6.80;99.90;;;;;;5019607;28;20518;-50
2022/01/31 08:34:23;;;;;;;22.67;3.47;;;6.80;99.90;;;;;;5022828;28;20441;-51
2022/01/31 08:36:49;;;;;;;16.20;2.65;;;6.80;99.90;;;;;;5031751;28;20021;-51
2022/01/31 08:39:18;;;;;;;17.67;2.72;;;6.80;99.90;;;;;;5025885;28;20029;-50
2022/01/31 08:41:49;;;;;;;22.40;3.28;;;6.80;99.90;;;;;;5020324;28;20387;-51
2022/01/31 08:44:17;;;;;;;20.20;2.83;;;6.80;99.90;;;;;;5021571;28;20458;-51
2022/01/31 08:46:44;;;;;;;26.48;3.08;;;6.80;99.90;;;;;;5017177;28;20048;-50
2022/01/31 08:49:13;;;;;;;18.83;2.72;;;6.80;99.90;;;;;;5024481;28;20034;-51
2022/01/31 08:51:39;;;;;;;20.70;3.10;;;6.70;99.90;;;;;;5023163;28;20026;-51
2022/01/31 08:54:06;;;;;;;16.27;3.28;;;6.70;99.90;;;;;;5015321;28;20033;-50
2022/01/31 08:56:38;;;;;;;17.40;3.42;;;6.80;99.90;;;;;;5024418;28;20435;-50
2022/01/31 08:59:05;;;;;;;18.98;2.78;;;6.80;99.90;;;;;;5018765;28;20037;-50
2022/01/31 09:01:32;;;;;;;18.92;3.58;;;6.80;99.90;;;;;;5015923;28;20037;-51
2022/01/31 09:04:02;;;;;;;21.60;3.28;;;6.70;99.90;;;;;;5015412;28;20383;-51
2022/01/31 09:06:30;;;;;;;26.25;3.85;;;6.70;99.90;;;;;;5028169;28;20079;-50
2022/01/31 09:08:57;;;;;;;28.67;4.10;;;6.70;99.90;;;;;;5020914;28;20037;-50
2022/01/31 09:11:25;;;;;;;21.95;3.70;;;6.80;99.90;;;;;;5019513;28;20435;-51
2022/01/31 09:13:50;;;;;;;17.63;3.83;;;6.80;99.90;;;;;;5014999;28;20063;-51
2022/01/31 09:16:17;;;;;;;29.65;4.15;;;6.80;99.90;;;;;;5017825;28;20030;-51
2022/01/31 09:18:42;;;;;;;18.83;2.88;;;6.90;99.90;;;;;;5024347;28;20128;-51
2022/01/31 09:21:09;;;;;;;18.45;3.45;;;6.90;99.90;;;;;;5032289;28;20695;-51
2022/01/31 09:23:34;;;;;;;32.97;3.55;;;6.90;99.90;;;;;;5024115;28;20044;-51
2022/01/31 09:26:00;;;;;;;19.40;3.25;;;7.00;99.90;;;;;;5015620;28;20487;-51
2022/01/31 09:28:26;;;;;;;18.48;3.33;;;6.90;99.90;;;;;;5015278;28;20485;-51
2022/01/31 09:30:53;;;;;;;20.35;3.33;;;6.90;99.90;;;;;;5014516;28;20033;-51
2022/01/31 09:33:19;;;;;;;20.13;3.20;;;6.80;99.90;;;;;;5021502;28;20415;-51
2022/01/31 09:35:45;;;;;;;19.45;2.90;;;6.80;99.90;;;;;;5019638;28;20021;-51
2022/01/31 09:38:14;;;;;;;21.33;2.85;;;6.80;99.90;;;;;;5013578;28;20175;-50
2022/01/31 09:40:41;;;;;;;21.98;3.67;;;6.70;99.90;;;;;;5015480;28;20609;-50
2022/01/31 09:46:00;;;;;;;19.20;2.88;;;6.80;99.90;;;;;;5017463;28;20038;-51
2022/01/31 09:48:33;;;;;;;;;;;6.80;99.90;;;;;;5025497;28;20375;-51
2022/01/31 09:51:05;;;;;;;20.38;3.65;;;6.80;99.90;;;;;;5011476;28;20406;-51
2022/01/31 09:53:33;;;;;;;16.35;2.42;;;6.80;99.90;;;;;;5019488;28;20100;-51
2022/01/31 09:55:59;;;;;;;17.55;3.10;;;6.80;99.90;;;;;;5016690;28;20369;-50
2022/01/31 09:58:29;;;;;;;17.55;2.80;;;6.80;99.90;;;;;;5018395;28;20033;-50
2022/01/31 10:01:07;;;;;;;23.30;3.33;;;6.80;99.90;;;;;;5023722;28;20029;-51
2022/01/31 10:03:42;;;;;;;21.38;3.20;;;6.70;99.90;;;;;;5026267;28;20326;-50
2022/01/31 10:06:21;;;;;;;17.58;2.90;;;6.80;99.90;;;;;;5020096;28;20192;-50
2022/01/31 10:08:58;;;;;;;19.67;3.17;;;6.80;99.90;;;;;;5016105;28;20514;-50
2022/01/31 10:11:28;;;;;;;31.45;3.78;;;6.90;99.90;;;;;;5026501;28;20076;-50
2022/01/31 10:16:45;;;;;;;18.67;3.05;;;7.00;99.90;;;;;;5017334;28;20075;-51
2022/01/31 10:19:11;;;;;;;19.55;3.60;;;7.00;99.90;;;;;;5016995;28;20510;-51
2022/01/31 10:22:13;;;;;;;20.35;2.90;;;7.10;99.90;;;;;;5023249;28;20068;-50
2022/01/31 10:24:42;;;;;;;16.23;2.97;;;7.10;99.90;;;;;;4974479;28;20026;-50
2022/01/31 10:27:14;;;;;;;20.08;3.78;;;7.20;99.90;;;;;;5013225;28;20048;-50
2022/01/31 10:29:41;;;;;;;16.08;2.47;;;7.30;99.90;;;;;;5028475;28;20037;-50
2022/01/31 10:32:10;;;;;;;24.08;3.30;;;7.40;99.90;;;;;;5013368;28;20365;-51
2022/01/31 10:34:57;;;;;;;15.43;2.97;;;7.30;99.90;;;;;;5020734;28;20072;-50
2022/01/31 10:37:25;;;;;;;18.52;3.13;;;7.30;99.90;;;;;;5015659;28;20025;-51
2022/01/31 10:51:29;;;;;;;11.82;2.22;;;7.10;99.90;;;;;;5024250;28;20530;-50
2022/01/31 10:54:01;;;;;;;22.30;3.55;;;7.10;99.90;;;;;;5018826;28;20486;-50
2022/01/31 10:56:56;;;;;;;16.42;2.88;;;7.10;99.90;;;;;;5013199;28;20026;-51
2022/01/31 10:59:32;;;;;;;15.32;2.45;;;7.10;99.90;;;;;;5015091;28;20166;-51
2022/01/31 11:02:00;;;;;;;12.27;2.90;;;7.10;99.90;;;;;;5013200;28;20029;-50
2022/01/31 11:04:34;;;;;;;17.70;2.95;;;7.10;99.90;;;;;;5017870;28;20072;-50
2022/01/31 11:07:02;;;;;;;29.25;3.25;;;7.10;99.90;;;;;;5014199;28;20026;-51
2022/01/31 11:09:30;;;;;;;22.90;3.53;;;7.10;99.90;;;;;;5013499;28;20022;-51
2022/01/31 11:11:56;;;;;;;18.75;2.90;;;7.10;99.90;;;;;;5015773;28;20021;-51
2022/01/31 11:14:22;;;;;;;20.55;3.15;;;7.10;99.90;;;;;;5016518;28;20044;-51
2022/01/31 11:16:49;;;;;;;19.20;3.15;;;7.10;99.90;;;;;;5022701;28;20502;-51
2022/01/31 11:19:22;;;;;;;23.48;3.33;;;7.30;99.90;;;;;;5019922;28;20029;-51
2022/01/31 11:21:49;;;;;;;18.52;2.85;;;7.50;99.90;;;;;;5020924;28;20503;-52
2022/01/31 11:24:25;;;;;;;20.80;2.65;;;7.70;99.90;;;;;;5019825;28;20054;-55
2022/01/31 11:27:04;;;;;;;23.67;3.70;;;7.60;99.90;;;;;;5012924;28;20566;-51
2022/01/31 11:29:34;;;;;;;16.25;3.40;;;7.60;99.90;;;;;;5018333;28;20038;-51
2022/01/31 11:32:01;;;;;;;21.50;3.67;;;7.50;99.90;;;;;;5022974;28;20037;-51
2022/01/31 11:34:28;;;;;;;20.48;3.30;;;7.30;99.90;;;;;;5017132;28;20028;-51
2022/01/31 11:36:54;;;;;;;15.30;3.00;;;7.20;99.90;;;;;;5016240;28;20030;-51
2022/01/31 11:39:20;;;;;;;18.85;2.85;;;7.20;99.90;;;;;;5012762;28;20057;-51
2022/01/31 11:41:52;;;;;;;20.65;3.88;;;7.20;99.90;;;;;;5014030;28;20088;-51
2022/01/31 11:44:49;;;;;;;20.55;4.20;;;7.20;99.90;;;;;;5028297;28;20026;-51
2022/01/31 11:47:19;;;;;;;18.52;3.40;;;7.20;99.90;;;;;;5015829;28;20037;-51
2022/01/31 11:49:46;;;;;;;19.00;3.78;;;7.20;99.90;;;;;;5013295;28;20034;-51
2022/01/31 11:52:12;;;;;;;23.92;3.60;;;7.10;99.90;;;;;;5021267;28;20033;-51
2022/01/31 11:55:04;;;;;;;22.80;3.92;;;7.00;99.90;;;;;;5014384;28;20029;-51
2022/01/31 11:57:32;;;;;;;18.67;3.35;;;6.90;99.90;;;;;;5020959;28;20019;-51
2022/01/31 12:00:04;;;;;;;20.08;3.80;;;6.80;99.90;;;;;;5019886;28;20041;-51
2022/01/31 12:02:31;;;;;;;19.43;3.50;;;6.70;99.90;;;;;;5018918;28;20083;-51
2022/01/31 12:05:03;;;;;;;21.83;3.60;;;6.70;99.90;;;;;;5017310;28;20034;-51
2022/01/31 12:07:39;;;;;;;17.73;3.33;;;6.80;99.90;;;;;;5025489;28;20030;-51
2022/01/31 12:10:06;;;;;;;16.27;2.92;;;6.80;99.90;;;;;;5016659;28;20037;-52
2022/01/31 12:12:45;;;;;;;22.65;3.63;;;7.00;99.90;;;;;;5019945;28;20029;-51
2022/01/31 12:23:46;;;;;;;18.65;3.30;;;7.20;99.90;;;;;;5016253;28;20056;-51
2022/01/31 12:26:47;;;;;;;22.65;3.33;;;7.10;99.90;;;;;;5026269;28;20041;-51
2022/01/31 12:29:18;;;;;;;32.08;3.17;;;7.10;99.90;;;;;;4966514;28;20053;-51
2022/01/31 12:31:51;;;;;;;18.33;3.22;;;7.10;99.90;;;;;;5013807;28;20628;-51
2022/01/31 12:34:16;;;;;;;;;;;7.00;99.90;;;;;;5019100;28;20017;-51
2022/01/31 12:36:42;;;;;;;16.75;3.28;;;7.00;99.90;;;;;;5018768;28;20305;-51
2022/01/31 12:39:37;;;;;;;21.75;3.50;;;7.00;99.90;;;;;;5022051;28;20033;-51
2022/01/31 12:45:15;;;;;;;21.83;3.78;;;7.00;99.90;;;;;;5017080;28;20068;-51
2022/01/31 12:48:05;;;;;;;21.08;3.67;;;7.10;99.90;;;;;;5016562;28;20025;-51
2022/01/31 12:50:32;;;;;;;21.95;3.97;;;7.10;99.90;;;;;;5015495;28;20289;-51
2022/01/31 12:53:03;;;;;;;22.05;3.80;;;7.20;99.90;;;;;;5018990;28;20095;-51
2022/01/31 12:55:30;;;;;;;20.63;3.47;;;7.00;99.90;;;;;;5017499;28;20026;-51
2022/01/31 12:57:56;;;;;;;28.25;4.63;;;6.90;99.90;;;;;;5020668;28;20017;-51
2022/01/31 13:00:41;;;;;;;22.13;3.90;;;6.90;99.90;;;;;;5011386;28;20088;-51
2022/01/31 13:03:10;;;;;;;24.60;4.00;;;7.00;99.90;;;;;;5011487;28;20061;-51
2022/01/31 13:05:38;;;;;;;21.65;3.60;;;7.00;99.90;;;;;;5020488;28;20032;-51
2022/01/31 13:08:20;;;;;;;26.65;3.38;;;7.00;99.90;;;;;;5019351;28;20103;-51
2022/01/31 13:10:46;;;;;;;18.10;2.95;;;7.00;99.90;;;;;;5013326;28;20033;-51
2022/01/31 13:13:12;;;;;;;23.75;3.72;;;7.00;99.90;;;;;;5019015;28;20035;-51
2022/01/31 13:15:38;;;;;;;20.80;3.58;;;6.90;99.90;;;;;;5015478;28;20046;-51
2022/01/31 13:18:08;;;;;;;31.15;4.65;;;6.80;99.90;;;;;;5009380;28;20033;-51
2022/01/31 13:20:35;;;;;;;24.73;4.45;;;6.80;99.90;;;;;;5021343;28;20038;-51
2022/01/31 13:23:03;;;;;;;26.45;4.60;;;6.80;99.90;;;;;;5016216;28;20061;-51
2022/01/31 13:25:29;;;;;;;32.90;3.92;;;6.80;99.90;;;;;;5009587;28;20065;-51